Accueil
METAR-TAF:

METAR-TAF

Aéroports :

Aéroport de Pampelune

Pampelune, Espagne

latitude: 42-46N, longitude: 001-38W, altitude: 459 m

Observation

Le bulletin a été fait il y a 38 minutes, à 04:30 UTC
Vent 1 kt de direction variable
Température 1°C
Humidité 93%
Pression 1023 hPa
Visibilité 10 km ou plus
pas de nuages en-dessous de 1500 mètres et pas de cumulonimbus.

METAR: LEPP 110430Z VRB01KT CAVOK 01/00 Q1023

Heure: 06:08 (05:08 UTC)

Prévision

Le bulletin a été fait il y a 3 heures et 8 minutes, à 02:00 UTC
Prévision valable du 11 à 03 UTC au 12 à 03 UTC
Vent 5 kt de direction variable
Visibilité 10 km ou plus
Quelques nuages à une hauteur de 3000 ft
Probabilité 40% :
Temporairement
du 11 à 03 UTC au 11 à 07 UTC
Visibilité: 1500 m
bancs de brouillard

TAF: LEPP 110200Z 1103/1203 VRB05KT 9999 FEW030 TX12/1114Z TNM00/1106Z PROB40 TEMPO 1103/1107 1500 BCFG

Observations et prévisions météorologiques de plus de 4000 aéroports (messages METAR et TAF).

Les stations disponibles sont représentées par des disques jaunes et rouges sur la carte.

Passer la souris dessus pour voir le nom de la station.

Cliquer dessus pour voir les observations et prévisions météorologiques.

Pour changer de carte: cliquez sur les boutons verts avec une croix noire pour zoomer, sur le bouton vert avec un tiret pour effectuer un zoom arrière, ou sur les flèches vertes pour les cartes adjacentes.


METAR-TAF: